Time;durP1;ratioP1;P1;durP2;ratioP2;P2;SDS_P1;SDS_P2;PMS_P1;PMS_P2;Temp;Humidity;BMP_temperature;BMP_pressure;BME280_temperature;BME280_humidity;BME280_pressure;Samples;Min_cycle;Max_cycle;Signal;HPM_P1;HPM_P2
2021/04/19 00:02:10;;;;;;;15.65;10.65;;;;;;;11.69;68.61;101492.68;1790866;80;21174;-76
2021/04/19 00:04:43;;;;;;;16.40;10.03;;;;;;;11.65;68.81;101495.68;1790786;80;21341;-75
2021/04/19 00:07:16;;;;;;;14.33;9.73;;;;;;;11.62;69.06;101493.38;1791111;80;21166;-75
2021/04/19 00:09:48;;;;;;;15.85;10.28;;;;;;;11.62;69.30;101498.11;1790915;80;21186;-77
2021/04/19 00:12:21;;;;;;;17.23;12.00;;;;;;;11.63;69.58;101498.41;1790799;80;21846;-76
2021/04/19 00:14:54;;;;;;;18.17;12.60;;;;;;;11.66;69.74;101491.80;1790742;80;21340;-76
2021/04/19 00:17:27;;;;;;;20.43;13.60;;;;;;;11.69;69.80;101485.73;1790842;80;21174;-72
2021/04/19 00:20:01;;;;;;;;;;;;;;;11.69;69.87;101488.51;1793068;80;21155;-73
2021/04/19 00:22:34;;;;;;;19.73;12.20;;;;;;;11.67;69.96;101487.92;1790298;80;20249;-76
2021/04/19 00:25:08;;;;;;;19.95;11.60;;;;;;;11.64;70.11;101486.19;1790832;80;21317;-76
2021/04/19 00:27:41;;;;;;;14.40;9.93;;;;;;;11.62;70.20;101491.98;1789400;80;21186;-75
2021/04/19 00:30:15;;;;;;;17.02;10.65;;;;;;;11.63;70.32;101488.67;1789181;80;21818;-75
2021/04/19 00:32:47;;;;;;;14.68;9.25;;;;;;;11.65;70.51;101483.70;1789022;80;21424;-75
2021/04/19 00:35:20;;;;;;;18.37;11.15;;;;;;;11.68;70.44;101484.05;1789130;80;21182;-75
2021/04/19 00:37:53;;;;;;;21.17;11.25;;;;;;;11.68;70.44;101484.05;1789940;80;21364;-75
2021/04/19 00:40:26;;;;;;;21.23;12.00;;;;;;;11.73;70.37;101490.28;1790618;80;21352;-74
2021/04/19 00:42:59;;;;;;;;;;;;;;;11.73;70.26;101485.53;1793180;80;21328;-75
2021/04/19 00:45:31;;;;;;;16.05;10.05;;;;;;;11.75;70.16;101470.83;1790762;80;20570;-76
2021/04/19 00:48:04;;;;;;;17.62;10.95;;;;;;;11.76;70.03;101466.97;1790702;80;21352;-75
2021/04/19 00:50:37;;;;;;;17.95;9.88;;;;;;;11.73;70.05;101470.23;1791061;80;21352;-75
2021/04/19 00:53:12;;;;;;;19.40;9.95;;;;;;;11.67;70.12;101478.19;1790557;80;21178;-76
2021/04/19 00:55:44;;;;;;;16.90;10.53;;;;;;;11.68;70.24;101484.05;1790753;80;21324;-76
2021/04/19 00:58:17;;;;;;;16.00;9.93;;;;;;;11.70;70.31;101478.23;1773336;80;21902;-77
2021/04/19 01:00:50;;;;;;;18.73;10.30;;;;;;;11.68;70.26;101479.87;1789280;80;21921;-76
2021/04/19 01:03:23;;;;;;;15.45;9.73;;;;;;;11.68;70.27;101478.48;1789249;80;21318;-74
2021/04/19 01:05:56;;;;;;;15.93;10.32;;;;;;;11.68;70.17;101474.30;1789326;80;21775;-73
2021/04/19 01:08:31;;;;;;;20.70;10.65;;;;;;;11.70;70.05;101479.09;1780297;80;21182;-74
2021/04/19 01:11:07;;;;;;;19.27;12.40;;;;;;;11.72;69.98;101472.73;1788988;80;21246;-74
2021/04/19 01:13:40;;;;;;;16.82;11.40;;;;;;;11.73;69.91;101468.84;1789353;80;21369;-73
2021/04/19 01:16:13;;;;;;;18.73;10.38;;;;;;;11.73;69.90;101466.06;1794835;80;21230;-73
2021/04/19 01:18:47;;;;;;;20.15;11.70;;;;;;;11.75;69.80;101472.22;1794781;80;21187;-74
2021/04/19 01:21:20;;;;;;;22.55;12.10;;;;;;;11.73;69.71;101464.67;1795143;80;21823;-76
2021/04/19 01:23:53;;;;;;;19.67;11.97;;;;;;;11.71;69.86;101461.31;1794929;80;21356;-77
2021/04/19 01:26:26;;;;;;;19.75;10.93;;;;;;;11.67;70.02;101468.45;1795004;80;21329;-73
2021/04/19 01:29:00;;;;;;;15.25;10.20;;;;;;;11.64;70.30;101464.80;1795028;80;21206;-74
2021/04/19 01:31:34;;;;;;;16.52;9.98;;;;;;;11.60;70.48;101459.42;1794853;80;21371;-75
2021/04/19 01:34:09;;;;;;;18.62;11.97;;;;;;;11.60;70.71;101455.78;1795022;80;21409;-74
2021/04/19 01:36:44;;;;;;;24.32;13.53;;;;;;;11.58;70.89;101455.16;1794897;80;21321;-73
2021/04/19 01:39:17;;;;;;;18.07;13.53;;;;;;;11.56;71.01;101460.96;1768493;80;21336;-76
2021/04/19 01:41:50;;;;;;;25.82;13.95;;;;;;;11.55;71.17;101461.23;1795018;80;21309;-74
2021/04/19 01:44:22;;;;;;;18.67;13.22;;;;;;;11.54;71.29;101463.16;1794913;80;21747;-74
2021/04/19 01:46:55;;;;;;;18.62;11.05;;;;;;;11.52;71.40;101465.35;1758908;80;21243;-81
2021/04/19 01:49:28;;;;;;;25.45;12.73;;;;;;;11.50;71.62;101468.91;1796311;80;21353;-75
2021/04/19 01:52:02;;;;;;;19.05;12.63;;;;;;;11.49;71.83;101451.92;1746620;80;21775;-75
2021/04/19 01:54:35;;;;;;;24.55;13.10;;;;;;;11.50;71.91;101453.61;1796369;80;21317;-77
2021/04/19 01:57:09;;;;;;;20.27;13.83;;;;;;;11.50;72.04;101454.17;1758799;80;21224;-77
2021/04/19 01:59:42;;;;;;;;;;;;;;;11.51;72.07;101450.30;1799332;80;21807;-78
2021/04/19 02:02:26;;;;;;;20.50;12.93;;;;;;;11.48;72.07;101451.63;1796346;80;20700;-77
2021/04/19 02:05:48;;;;;;;17.62;11.43;;;;;;;11.45;72.14;101449.36;1796060;80;21367;-76
2021/04/19 02:08:43;;;;;;;15.30;10.23;;;;;;;11.44;72.21;101446.25;1728646;83;21191;-78
2021/04/19 02:11:48;;;;;;;20.15;11.57;;;;;;;11.43;72.41;101452.91;1764613;81;21236;-72
2021/04/19 02:14:44;;;;;;;21.97;13.15;;;;;;;11.45;72.53;101448.50;1764896;81;21351;-72
2021/04/19 02:17:34;;;;;;;21.77;12.73;;;;;;;11.47;72.60;101449.09;1776669;80;21909;-88
2021/04/19 02:20:35;;;;;;;20.17;13.98;;;;;;;11.47;72.57;101447.17;1741736;80;21180;-73
2021/04/19 02:23:37;;;;;;;28.60;13.98;;;;;;;11.47;72.55;101454.13;1796003;80;21301;-73
2021/04/19 02:26:31;;;;;;;28.32;16.02;;;;;;;11.48;72.51;101455.80;1796071;80;21324;-72
2021/04/19 02:29:13;;;;;;;;;;;;;;;11.49;72.63;101467.22;1761372;80;21180;-72
2021/04/19 02:31:58;;;;;;;27.90;17.42;;;;;;;11.48;72.71;101463.29;1795464;80;20182;-73
2021/04/19 02:34:33;;;;;;;26.05;16.95;;;;;;;11.47;72.82;101465.77;1791107;80;21151;-72
2021/04/19 02:37:06;;;;;;;28.70;17.30;;;;;;;11.47;72.98;101462.46;1739909;81;21796;-73
2021/04/19 02:39:42;;;;;;;20.88;14.65;;;;;;;11.49;72.91;101464.44;1796376;80;21372;-71
2021/04/19 02:42:15;;;;;;;19.73;13.25;;;;;;;11.48;72.82;101454.41;1796086;80;21217;-72
2021/04/19 02:44:50;;;;;;;40.17;26.82;;;;;;;11.45;72.83;101447.97;1796270;80;21328;-70
2021/04/19 02:47:30;;;;;;;57.25;44.23;;;;;;;11.51;72.92;101448.91;1790401;80;21693;-73
2021/04/19 02:50:11;;;;;;;71.55;53.73;;;;;;;11.58;72.84;101449.09;1795208;80;21297;-72
2021/04/19 02:52:44;;;;;;;78.50;58.98;;;;;;;11.62;72.57;101446.09;1740577;80;21303;-73
2021/04/19 02:55:20;;;;;;;69.05;49.77;;;;;;;11.64;72.50;101443.93;1796206;80;21206;-71
2021/04/19 02:58:03;;;;;;;43.13;29.87;;;;;;;11.66;72.23;101442.27;1795394;80;21324;-75
2021/04/19 03:00:45;;;;;;;20.73;13.17;;;;;;;11.67;72.12;101432.28;1796299;80;21364;-75
2021/04/19 03:03:27;;;;;;;26.55;13.70;;;;;;;11.69;72.04;101441.78;1794399;80;21178;-77
2021/04/19 03:06:01;;;;;;;24.15;14.20;;;;;;;11.68;72.04;101443.70;1794852;80;21321;-74
2021/04/19 03:08:37;;;;;;;19.52;14.07;;;;;;;11.67;72.12;101440.63;1796011;80;21473;-73
2021/04/19 03:11:18;;;;;;;25.82;13.98;;;;;;;11.71;71.96;101440.97;1742301;80;21393;-75
2021/04/19 03:13:53;;;;;;;18.00;13.05;;;;;;;11.73;71.98;101443.81;1728709;81;21228;-76
2021/04/19 03:16:28;;;;;;;23.05;13.10;;;;;;;11.73;71.91;101452.16;1724665;82;21211;-74
2021/04/19 03:19:04;;;;;;;19.73;10.68;;;;;;;11.69;71.94;101446.78;1721246;83;21323;-75
2021/04/19 03:21:39;;;;;;;18.62;11.93;;;;;;;11.69;72.04;101445.95;1790137;80;21373;-78
2021/04/19 03:24:17;;;;;;;22.27;12.20;;;;;;;11.76;72.02;101447.50;1787888;80;21360;-76
2021/04/19 03:27:08;;;;;;;23.00;13.03;;;;;;;11.79;71.76;101442.81;1790527;80;21241;-76
2021/04/19 03:29:42;;;;;;;20.88;14.23;;;;;;;11.82;71.66;101445.11;1772304;80;21328;-78
2021/04/19 03:32:23;;;;;;;24.07;15.08;;;;;;;11.82;71.45;101445.64;1790106;80;21150;-74
2021/04/19 03:35:00;;;;;;;22.40;15.00;;;;;;;11.79;71.35;101442.81;1787472;80;21371;-74
2021/04/19 03:37:34;;;;;;;25.45;16.85;;;;;;;11.76;71.40;101439.69;1788920;80;21353;-71
2021/04/19 03:40:24;;;;;;;29.25;18.40;;;;;;;11.71;71.58;101436.80;1750898;82;21220;-70
2021/04/19 03:43:10;;;;;;;32.05;19.87;;;;;;;11.66;71.90;101440.34;1790485;80;21365;-70
2021/04/19 03:45:45;;;;;;;37.30;21.97;;;;;;;11.63;72.14;101441.39;1750859;82;21176;-70
2021/04/19 03:48:38;;;;;;;42.00;21.68;;;;;;;11.63;72.28;101444.99;1788055;80;21419;-71
2021/04/19 03:51:17;;;;;;;33.08;19.40;;;;;;;11.60;72.45;101439.95;1788064;80;21677;-71
2021/04/19 03:53:51;;;;;;;33.13;17.77;;;;;;;11.56;72.66;101437.32;1735337;81;21323;-73
2021/04/19 03:56:26;;;;;;;38.28;19.98;;;;;;;11.53;73.18;101443.93;1789299;80;21318;-70
2021/04/19 03:59:02;;;;;;;36.05;19.48;;;;;;;11.47;73.31;101440.22;1788800;80;21155;-69
2021/04/19 04:01:39;;;;;;;33.70;19.95;;;;;;;11.46;73.53;101445.48;1778637;80;21731;-71
2021/04/19 04:04:12;;;;;;;40.15;21.42;;;;;;;11.52;73.62;101445.88;1772503;80;21380;-71
2021/04/19 04:06:56;;;;;;;35.35;20.00;;;;;;;11.58;73.52;101447.70;1789580;79;21312;-75
2021/04/19 04:09:31;;;;;;;40.58;21.25;;;;;;;11.56;73.51;101444.27;1790165;80;21807;-75
2021/04/19 04:12:03;;;;;;;51.18;23.00;;;;;;;11.57;73.55;101446.52;1723247;82;21360;-69
2021/04/19 04:14:40;;;;;;;37.45;21.20;;;;;;;11.57;73.65;101445.12;1775208;80;21218;-71
2021/04/19 04:17:13;;;;;;;31.62;22.22;;;;;;;11.58;73.66;101437.97;1788455;80;21278;-73
2021/04/19 04:20:04;;;;;;;32.17;22.45;;;;;;;11.59;73.64;101441.58;1796595;80;21186;-73
2021/04/19 04:22:38;;;;;;;38.48;20.92;;;;;;;11.61;73.64;101437.45;1794145;80;21155;-71
2021/04/19 04:25:14;;;;;;;33.95;18.70;;;;;;;11.63;73.61;101437.22;1796626;80;21364;-70
2021/04/19 04:27:47;;;;;;;33.90;19.42;;;;;;;11.65;73.56;101427.53;1796352;80;21324;-70
2021/04/19 04:30:22;;;;;;;46.73;21.52;;;;;;;11.65;73.60;101430.31;1796626;80;21306;-70
2021/04/19 04:33:07;;;;;;;36.13;20.68;;;;;;;11.66;73.66;101428.36;1792764;80;21619;-72
2021/04/19 04:35:43;;;;;;;35.33;20.27;;;;;;;11.67;73.64;101428.11;1796527;80;21869;-71
2021/04/19 04:38:23;;;;;;;23.67;14.50;;;;;;;11.65;73.71;101431.70;1794880;80;21376;-75
2021/04/19 04:40:57;;;;;;;29.12;14.30;;;;;;;11.64;73.82;101423.59;1796623;80;21167;-73
2021/04/19 04:43:32;;;;;;;26.55;14.78;;;;;;;11.66;73.83;101426.97;1725292;81;21246;-74
2021/04/19 04:46:36;;;;;;;28.30;14.80;;;;;;;11.69;73.91;101434.27;1781218;80;21186;-74
2021/04/19 04:49:11;;;;;;;;;;;;;;;11.76;73.94;101432.20;1778866;80;21894;-75
2021/04/19 04:51:44;;;;;;;23.65;13.98;;;;;;;11.83;73.75;101434.27;1774952;80;20247;-75
2021/04/19 04:54:18;;;;;;;26.10;12.80;;;;;;;11.82;73.63;101430.34;1777399;80;21639;-71
2021/04/19 04:56:54;;;;;;;21.75;12.28;;;;;;;11.82;73.63;101430.34;1796012;80;21316;-70
2021/04/19 04:59:33;;;;;;;22.65;12.93;;;;;;;11.77;73.46;101429.70;1794722;80;21317;-71
2021/04/19 05:02:06;;;;;;;17.92;12.00;;;;;;;11.74;73.62;101431.58;1796342;80;21395;-73
2021/04/19 05:04:39;;;;;;;19.10;12.43;;;;;;;11.71;73.91;101425.67;1796162;80;21818;-75
2021/04/19 05:07:11;;;;;;;16.62;11.75;;;;;;;11.63;74.14;101419.96;1794278;80;21186;-83
2021/04/19 05:09:49;;;;;;;19.15;10.88;;;;;;;11.53;75.21;101416.98;1795018;80;21340;-75
2021/04/19 05:12:23;;;;;;;21.85;12.50;;;;;;;11.53;75.21;101416.98;1758324;80;21392;-75
2021/04/19 05:15:07;;;;;;;17.90;11.22;;;;;;;11.56;75.22;101421.20;1751541;80;21432;-76
2021/04/19 05:17:41;;;;;;;27.37;12.80;;;;;;;11.59;75.48;101422.11;1763891;80;21305;-74
2021/04/19 05:20:16;;;;;;;21.45;12.47;;;;;;;11.60;75.68;101436.30;1742943;81;21888;-75
2021/04/19 05:22:49;;;;;;;18.32;12.70;;;;;;;11.60;75.89;101430.21;1740997;81;21325;-75
2021/04/19 05:25:22;;;;;;;20.40;12.63;;;;;;;11.62;76.04;101429.41;1740934;81;21293;-78
2021/04/19 05:27:54;;;;;;;21.65;12.50;;;;;;;11.71;76.10;101425.67;1741433;81;21198;-75
2021/04/19 05:30:29;;;;;;;21.25;12.75;;;;;;;11.84;76.04;101437.88;1741140;81;21191;-74
2021/04/19 05:33:05;;;;;;;24.30;12.70;;;;;;;11.87;75.88;101438.22;1740842;82;21258;-78
2021/04/19 05:35:38;;;;;;;30.27;16.75;;;;;;;11.88;75.79;101446.03;1740910;81;21175;-75
2021/04/19 05:38:12;;;;;;;28.52;19.15;;;;;;;11.92;75.71;101443.87;1741234;81;21736;-75
2021/04/19 05:40:45;;;;;;;30.62;14.83;;;;;;;11.95;75.53;101442.54;1741060;82;21877;-77
2021/04/19 05:43:18;;;;;;;26.48;15.85;;;;;;;11.97;75.38;101437.02;1740921;82;21178;-80
2021/04/19 05:45:51;;;;;;;29.73;14.50;;;;;;;12.00;75.05;101437.06;1741207;82;21222;-72
2021/04/19 05:48:24;;;;;;;20.77;14.15;;;;;;;12.00;74.56;101439.31;1740984;81;21408;-70
2021/04/19 05:51:02;;;;;;;20.23;12.95;;;;;;;11.97;74.52;101443.12;1740949;82;21183;-71
2021/04/19 05:53:34;;;;;;;22.35;12.60;;;;;;;11.94;74.29;101438.93;1740774;82;21183;-70
2021/04/19 05:56:10;;;;;;;20.02;12.28;;;;;;;11.93;74.34;101437.78;1740647;82;21221;-74
2021/04/19 05:59:16;;;;;;;25.88;13.78;;;;;;;11.94;74.27;101437.54;1740910;81;21317;-74
2021/04/19 06:01:50;;;;;;;20.75;14.43;;;;;;;12.00;74.28;101432.36;1740753;82;21178;-73
2021/04/19 06:04:36;;;;;;;25.27;13.60;;;;;;;12.01;74.12;101435.97;1740962;82;21159;-76
2021/04/19 06:07:34;;;;;;;24.00;13.95;;;;;;;12.02;74.08;101441.29;1739426;82;21336;-71
2021/04/19 06:10:27;;;;;;;24.98;12.20;;;;;;;12.04;74.00;101431.30;1717567;82;21720;-72
2021/04/19 06:13:05;;;;;;;23.85;11.18;;;;;;;12.07;73.87;101427.47;1738230;82;21703;-71
2021/04/19 06:15:37;;;;;;;21.85;13.10;;;;;;;12.12;73.61;101433.13;1740789;82;21227;-71
2021/04/19 06:18:10;;;;;;;17.25;12.95;;;;;;;12.15;73.41;101435.39;1740972;82;21740;-73
2021/04/19 06:20:44;;;;;;;18.82;13.72;;;;;;;12.17;73.19;101438.75;1740836;81;21275;-74
2021/04/19 06:23:17;;;;;;;21.97;11.55;;;;;;;12.16;73.16;101434.28;1740683;82;21257;-73
2021/04/19 06:25:51;;;;;;;28.07;12.65;;;;;;;12.14;73.04;101438.42;1740777;82;21187;-69
2021/04/19 06:28:24;;;;;;;;;;;;;;;12.13;73.13;101440.37;1743349;82;21179;-71
2021/04/19 06:30:58;;;;;;;20.77;12.68;;;;;;;12.15;73.16;101446.52;1737290;81;20177;-73
2021/04/19 06:33:32;;;;;;;19.40;13.00;;;;;;;12.17;73.14;101447.67;1740733;82;21198;-74
2021/04/19 06:36:06;;;;;;;22.58;12.93;;;;;;;12.18;72.96;101447.39;1787507;80;21726;-71
2021/04/19 06:38:40;;;;;;;23.77;12.53;;;;;;;12.18;72.92;101457.14;1790475;80;21190;-70
2021/04/19 06:41:15;;;;;;;22.58;12.28;;;;;;;12.19;72.94;101460.25;1790664;80;21687;-70
2021/04/19 06:43:48;;;;;;;18.50;13.18;;;;;;;12.22;72.96;101458.33;1773538;80;21206;-71
2021/04/19 06:46:23;;;;;;;23.47;13.10;;;;;;;12.28;72.88;101453.14;1790676;80;21929;-73
2021/04/19 06:48:55;;;;;;;29.55;14.35;;;;;;;12.33;72.82;101448.20;1790537;80;22497;-77
2021/04/19 06:51:28;;;;;;;23.87;13.65;;;;;;;12.36;72.74;101451.33;1790754;80;21685;-70
2021/04/19 06:54:01;;;;;;;21.23;13.05;;;;;;;12.39;72.58;101448.05;1773331;80;21325;-70
2021/04/19 06:56:40;;;;;;;24.23;11.85;;;;;;;12.42;72.46;101449.48;1790577;80;21313;-71
2021/04/19 06:59:19;;;;;;;20.57;12.43;;;;;;;12.48;72.30;101440.11;1790551;80;21317;-71
2021/04/19 07:01:55;;;;;;;23.07;12.65;;;;;;;12.54;72.23;101448.27;1790609;80;21186;-69
2021/04/19 07:04:28;;;;;;;26.62;12.47;;;;;;;12.65;72.17;101457.09;1790342;80;21371;-71
2021/04/19 07:07:00;;;;;;;21.30;13.10;;;;;;;12.73;71.84;101458.06;1790427;80;21364;-72
2021/04/19 07:09:37;;;;;;;25.27;13.90;;;;;;;12.81;71.50;101451.19;1790608;80;21178;-70
2021/04/19 07:12:23;;;;;;;27.73;13.32;;;;;;;12.84;71.27;101457.09;1790500;80;21812;-72
2021/04/19 07:14:53;;;;;;;23.87;13.00;;;;;;;12.86;71.13;101461.88;1790342;80;21368;-75
2021/04/19 07:17:27;;;;;;;23.75;12.43;;;;;;;12.87;70.90;101459.38;1790640;80;21182;-75
2021/04/19 07:20:01;;;;;;;43.52;24.82;;;;;;;12.87;70.68;101462.17;1790378;80;21329;-68
2021/04/19 07:22:34;;;;;;;42.87;20.73;;;;;;;12.87;70.57;101461.31;1794896;80;21194;-68
2021/04/19 07:25:08;;;;;;;23.52;14.43;;;;;;;12.91;70.60;101473.65;1796484;80;21799;-74
2021/04/19 07:27:42;;;;;;;29.37;14.55;;;;;;;12.96;70.39;101472.37;1796226;80;21214;-67
2021/04/19 07:30:16;;;;;;;23.85;14.83;;;;;;;12.97;70.15;101466.51;1795793;80;21198;-70
2021/04/19 07:32:50;;;;;;;25.05;16.17;;;;;;;12.99;70.08;101466.26;1795597;80;21179;-72
2021/04/19 07:35:29;;;;;;;29.23;15.60;;;;;;;12.99;70.12;101465.72;1795556;80;21323;-70
2021/04/19 07:38:05;;;;;;;29.90;13.05;;;;;;;13.01;70.23;101465.47;1795754;80;21186;-71
2021/04/19 07:40:40;;;;;;;33.20;12.50;;;;;;;13.02;70.03;101467.98;1795631;80;21209;-70
2021/04/19 07:43:26;;;;;;;29.10;13.28;;;;;;;13.04;69.99;101468.59;1795575;80;21187;-70
2021/04/19 07:46:13;;;;;;;34.43;15.35;;;;;;;13.05;70.02;101459.12;1795582;80;21324;-70
2021/04/19 07:48:50;;;;;;;50.15;14.20;;;;;;;13.13;70.02;101467.56;1793270;79;21183;-69
2021/04/19 07:51:34;;;;;;;42.25;14.63;;;;;;;13.21;69.91;101462.38;1795630;80;21181;-71
2021/04/19 07:54:17;;;;;;;33.00;15.32;;;;;;;13.27;69.79;101458.55;1795789;80;21321;-72
2021/04/19 07:56:58;;;;;;;39.63;15.58;;;;;;;13.32;69.56;101457.80;1795826;80;21324;-72
2021/04/19 07:59:33;;;;;;;37.25;14.53;;;;;;;13.35;69.15;101456.73;1772832;80;21368;-71
2021/04/19 08:02:12;;;;;;;28.00;12.80;;;;;;;13.36;69.09;101457.02;1771844;79;21307;-71
2021/04/19 08:04:51;;;;;;;28.42;12.53;;;;;;;13.35;69.03;101452.55;1771828;80;21157;-71
2021/04/19 08:07:30;;;;;;;23.65;12.40;;;;;;;13.39;69.11;101451.47;1771831;80;21907;-73
2021/04/19 08:10:08;;;;;;;22.30;12.23;;;;;;;13.46;69.16;101464.09;1773221;80;21151;-73
2021/04/19 08:12:42;;;;;;;27.87;13.05;;;;;;;13.51;68.87;101468.91;1767765;80;21324;-70
2021/04/19 08:15:18;;;;;;;16.55;12.13;;;;;;;13.55;68.66;101468.13;1767065;80;21327;-73
2021/04/19 08:17:51;;;;;;;18.85;13.15;;;;;;;13.59;68.49;101468.45;1742290;82;21173;-74
2021/04/19 08:20:26;;;;;;;16.95;12.10;;;;;;;13.56;68.49;101471.77;1734314;82;21181;-77
2021/04/19 08:23:13;;;;;;;18.52;12.03;;;;;;;13.51;68.60;101464.73;1739824;81;21877;-78
2021/04/19 08:25:52;;;;;;;20.37;11.97;;;;;;;13.47;68.73;101463.02;1737592;82;21209;-79
2021/04/19 08:28:26;;;;;;;19.42;12.78;;;;;;;13.46;68.84;101460.48;1737436;81;21797;-76
2021/04/19 08:31:00;;;;;;;55.63;25.02;;;;;;;13.50;68.88;101465.84;1737936;81;21189;-75
2021/04/19 08:33:34;;;;;;;37.08;19.85;;;;;;;13.56;68.86;101462.83;1737829;81;21182;-76
2021/04/19 08:36:13;;;;;;;30.88;15.18;;;;;;;13.63;68.70;101459.28;1737565;82;21197;-74
2021/04/19 08:38:46;;;;;;;25.10;14.45;;;;;;;13.69;68.36;101456.02;1736707;82;21252;-74
2021/04/19 08:41:19;;;;;;;27.58;14.68;;;;;;;13.69;68.24;101457.41;1729409;82;21699;-74
2021/04/19 08:43:52;;;;;;;;;;;;;;;13.69;68.31;101452.65;1740233;82;21833;-75
2021/04/19 08:46:24;;;;;;;22.10;13.65;;;;;;;13.72;68.34;101459.12;1737600;82;20523;-75
2021/04/19 08:48:57;;;;;;;21.67;13.13;;;;;;;13.72;68.01;101456.33;1737900;82;21193;-71
2021/04/19 08:51:31;;;;;;;21.40;13.18;;;;;;;13.74;67.95;101460.27;1737599;82;21189;-70
2021/04/19 08:54:04;;;;;;;20.43;13.62;;;;;;;13.79;68.11;101463.08;1737791;82;21169;-70
2021/04/19 08:56:37;;;;;;;22.55;13.70;;;;;;;13.88;67.92;101460.95;1737692;81;21284;-71
2021/04/19 08:59:12;;;;;;;23.42;12.88;;;;;;;13.97;67.80;101462.17;1737649;82;21232;-72
2021/04/19 09:01:46;;;;;;;21.77;14.03;;;;;;;14.05;67.66;101451.09;1737705;82;21709;-73
2021/04/19 09:04:24;;;;;;;19.35;12.33;;;;;;;14.15;67.58;101458.14;1739867;80;21194;-72
2021/04/19 09:06:59;;;;;;;19.82;13.75;;;;;;;14.19;67.16;101460.17;1739753;82;21416;-73
2021/04/19 09:09:41;;;;;;;21.60;12.90;;;;;;;14.20;67.05;101456.83;1740982;81;21186;-73
2021/04/19 09:12:22;;;;;;;19.87;12.88;;;;;;;14.20;66.88;101454.90;1740611;82;22339;-69
2021/04/19 09:15:14;;;;;;;18.48;12.63;;;;;;;14.24;66.51;101451.02;1740717;81;21198;-68
2021/04/19 09:18:06;;;;;;;19.55;11.03;;;;;;;14.24;66.38;101456.03;1708839;82;21287;-71
2021/04/19 09:20:53;;;;;;;17.85;12.70;;;;;;;14.24;66.46;101459.40;1740686;81;21234;-69
2021/04/19 09:23:32;;;;;;;23.87;11.85;;;;;;;14.25;66.43;101459.11;1742122;80;21202;-70
2021/04/19 09:26:07;;;;;;;21.15;12.00;;;;;;;14.27;66.20;101457.45;1745391;80;21367;-69
2021/04/19 09:28:47;;;;;;;19.32;11.53;;;;;;;14.25;64.90;101459.11;1745437;82;21711;-72
2021/04/19 09:31:19;;;;;;;21.23;12.07;;;;;;;14.23;64.51;101455.75;1745779;82;21368;-70
2021/04/19 09:33:53;;;;;;;19.05;12.20;;;;;;;14.21;64.63;101460.77;1727039;81;21861;-70
2021/04/19 09:36:52;;;;;;;18.23;11.88;;;;;;;14.22;64.43;101454.06;1704810;82;21324;-69
2021/04/19 09:39:56;;;;;;;20.15;13.30;;;;;;;14.18;64.15;101454.27;1739810;80;22005;-68
2021/04/19 09:43:06;;;;;;;21.90;12.82;;;;;;;14.12;63.82;101451.14;1767763;80;21858;-69
2021/04/19 09:45:50;;;;;;;21.65;13.35;;;;;;;14.04;63.95;101444.65;1795816;80;21177;-72
2021/04/19 09:48:39;;;;;;;24.52;12.07;;;;;;;13.99;64.29;101457.16;1793659;80;21166;-71
2021/04/19 09:51:20;;;;;;;19.10;12.70;;;;;;;13.99;64.42;101453.55;1774212;80;21814;-74
2021/04/19 09:54:09;;;;;;;21.30;12.40;;;;;;;14.01;64.38;101445.73;1771865;80;21448;-74
2021/04/19 09:56:48;;;;;;;21.57;12.37;;;;;;;13.99;64.25;101448.78;1760945;80;21388;-72
2021/04/19 09:59:23;;;;;;;18.98;11.45;;;;;;;13.99;64.51;101448.78;1746255;80;21393;-72
2021/04/19 10:02:02;;;;;;;27.10;13.03;;;;;;;14.01;64.39;101447.98;1753295;80;21333;-71
2021/04/19 10:04:42;;;;;;;31.12;12.28;;;;;;;14.03;64.29;101444.36;1769176;80;21782;-71
2021/04/19 10:07:12;;;;;;;30.48;13.45;;;;;;;14.09;64.42;101446.64;1771006;80;21182;-72
2021/04/19 10:09:45;;;;;;;40.90;14.20;;;;;;;14.14;64.33;101441.96;1773901;79;21592;-70
2021/04/19 10:12:19;;;;;;;24.57;15.08;;;;;;;14.18;64.14;101441.70;1760934;80;21209;-71
2021/04/19 10:14:51;;;;;;;28.25;14.73;;;;;;;14.19;63.80;101443.98;1742138;81;21687;-72
2021/04/19 10:17:27;;;;;;;25.97;14.20;;;;;;;14.19;63.93;101438.39;1742057;82;21229;-71
2021/04/19 10:20:00;;;;;;;26.20;14.83;;;;;;;14.21;63.95;101434.23;1741836;82;21229;-72
2021/04/19 10:22:33;;;;;;;25.12;14.55;;;;;;;14.26;63.75;101434.28;1725334;80;21170;-70
2021/04/19 10:25:08;;;;;;;25.15;14.50;;;;;;;14.32;63.39;101441.59;1795342;80;21786;-72
2021/04/19 10:27:42;;;;;;;22.58;13.90;;;;;;;14.36;63.30;101437.70;1753609;80;21786;-74
2021/04/19 10:30:17;;;;;;;28.15;14.07;;;;;;;14.42;63.21;101433.27;1789213;80;21249;-73
2021/04/19 10:32:50;;;;;;;25.92;15.70;;;;;;;14.50;63.46;101443.98;1795189;80;21159;-70
2021/04/19 10:35:34;;;;;;;30.53;17.07;;;;;;;14.57;63.17;101433.95;1795656;80;21166;-72
2021/04/19 10:38:10;;;;;;;25.80;16.05;;;;;;;14.68;62.85;101428.17;1743680;82;21845;-73
2021/04/19 10:40:42;;;;;;;38.75;16.62;;;;;;;14.77;62.39;101433.53;1736167;82;21173;-73
2021/04/19 10:43:15;;;;;;;26.27;15.35;;;;;;;14.82;61.73;101434.11;1738905;82;21774;-72
2021/04/19 10:45:51;;;;;;;23.92;15.00;;;;;;;14.82;61.35;101431.31;1738821;82;21687;-67
2021/04/19 10:48:29;;;;;;;27.27;15.88;;;;;;;14.82;61.35;101431.31;1735715;82;21252;-68
2021/04/19 10:51:18;;;;;;;28.57;16.82;;;;;;;14.88;61.24;101429.69;1735153;82;21371;-71
2021/04/19 10:53:53;;;;;;;24.72;15.90;;;;;;;14.94;60.22;101431.95;1734708;82;21193;-72
2021/04/19 10:56:26;;;;;;;24.32;15.70;;;;;;;14.94;59.52;101437.00;1729836;82;21846;-69
2021/04/19 10:59:03;;;;;;;26.42;15.15;;;;;;;14.94;59.40;101438.94;1734810;82;21842;-70
2021/04/19 11:01:44;;;;;;;29.67;14.20;;;;;;;14.94;59.31;101438.40;1738727;81;21253;-72
2021/04/19 11:04:17;;;;;;;31.25;14.58;;;;;;;14.98;59.45;101430.30;1738573;82;21214;-72
2021/04/19 11:06:50;;;;;;;;;;;;;;;15.05;58.92;101437.34;1698521;82;21263;-72
2021/04/19 11:09:27;;;;;;;23.60;15.05;;;;;;;15.13;58.99;101437.36;1735287;82;20181;-70
2021/04/19 11:12:01;;;;;;;28.12;14.47;;;;;;;15.19;59.26;101432.08;1738621;82;21185;-69
2021/04/19 11:14:36;;;;;;;;;;;;;;;15.27;58.61;101426.80;1719953;82;21373;-69
2021/04/19 11:17:09;;;;;;;22.70;11.97;;;;;;;15.40;58.56;101424.09;1736386;82;20197;-69
2021/04/19 11:19:45;;;;;;;;;;;;;;;15.48;57.94;101411.81;1737536;82;21174;-66
2021/04/19 11:22:28;;;;;;;26.25;11.97;;;;;;;15.61;56.81;101414.63;1738648;81;20189;-68
2021/04/19 11:25:22;;;;;;;17.60;11.60;;;;;;;15.76;55.17;101402.09;1736090;81;21233;-72
2021/04/19 11:28:30;;;;;;;18.62;10.78;;;;;;;15.76;55.17;101402.09;1732783;82;21197;-70
2021/04/19 11:31:11;;;;;;;17.92;10.48;;;;;;;15.85;54.68;101387.80;1731409;82;21415;-70
2021/04/19 11:33:45;;;;;;;21.45;11.35;;;;;;;15.91;54.50;101398.75;1738372;82;21328;-72
2021/04/19 11:36:19;;;;;;;18.87;11.25;;;;;;;16.01;54.45;101395.94;1730159;82;21335;-70
2021/04/19 11:38:52;;;;;;;16.87;12.40;;;;;;;16.08;53.74;101385.29;1745202;82;21339;-70
2021/04/19 11:41:24;;;;;;;17.32;10.63;;;;;;;16.09;52.20;101387.81;1739095;82;21727;-67
2021/04/19 11:43:59;;;;;;;18.35;12.47;;;;;;;16.08;52.54;101380.54;1736745;82;21340;-69
2021/04/19 11:46:32;;;;;;;19.32;10.95;;;;;;;16.11;53.15;101377.73;1745247;82;21263;-69
2021/04/19 11:49:04;;;;;;;20.15;10.72;;;;;;;16.16;53.14;101370.16;1739539;82;21853;-71
2021/04/19 11:51:38;;;;;;;18.30;10.88;;;;;;;16.22;52.72;101365.41;1745400;81;21165;-69
2021/04/19 11:54:12;;;;;;;;;;;;;;;16.28;52.32;101357.28;1741523;82;21189;-68
2021/04/19 11:56:44;;;;;;;16.10;9.28;;;;;;;16.33;51.42;101357.28;1719845;82;20675;-69
2021/04/19 11:59:18;;;;;;;;;;;;;;;16.37;51.39;101359.78;1719103;82;21422;-70